createdAt,value
2016-08-30T05:27:35.308Z,20
2016-08-30T05:28:09.596Z,20
2016-08-30T05:28:43.890Z,20
2016-08-30T05:29:18.186Z,20
2016-08-30T05:29:53.545Z,20
2016-08-30T05:30:27.827Z,20
2016-08-30T05:31:02.101Z,20
2016-08-30T05:31:36.372Z,25
2016-08-30T05:32:10.649Z,25
2016-08-30T05:32:44.941Z,25
2016-08-30T05:33:19.228Z,30
2016-08-30T05:33:53.513Z,25
2016-08-30T05:34:27.824Z,25
2016-08-30T05:35:02.991Z,25
2016-08-30T05:35:41.613Z,25
2016-08-30T05:36:16.995Z,25
2016-08-30T05:36:52.716Z,25
2016-08-30T05:37:29.206Z,25
2016-08-30T05:38:04.863Z,25
2016-08-30T05:38:39.476Z,25
2016-08-30T05:39:14.070Z,25
2016-08-30T05:39:48.647Z,25
2016-08-30T05:40:23.202Z,25
2016-08-30T05:40:59.065Z,25
2016-08-30T05:41:35.279Z,25
2016-08-30T05:42:09.911Z,25
2016-08-30T05:42:44.555Z,25
2016-08-30T05:43:18.885Z,25
2016-08-30T05:43:53.314Z,25
2016-08-30T05:44:27.610Z,25
2016-08-30T05:45:05.952Z,25
2016-08-30T05:45:45.580Z,25
2016-08-30T05:46:19.876Z,25
2016-08-30T05:46:54.195Z,25
2016-08-30T05:47:28.502Z,25
2016-08-30T05:48:02.807Z,25
2016-08-30T05:48:37.112Z,25
2016-08-30T05:49:11.427Z,30
2016-08-30T05:49:45.742Z,25
2016-08-30T05:50:20.535Z,25
2016-08-30T05:50:54.909Z,30
2016-08-30T05:51:29.417Z,30
2016-08-30T05:52:03.800Z,30
2016-08-30T05:52:38.086Z,30
2016-08-30T05:53:12.585Z,30
2016-08-30T05:53:47.448Z,30
2016-08-30T05:58:19.673Z,60
2016-08-30T05:58:54.061Z,75
2016-08-30T05:59:30.795Z,85
2016-08-30T06:00:15.593Z,85
2016-08-30T06:00:54.217Z,85
2016-08-30T06:01:44.525Z,85
2016-08-30T06:02:18.875Z,90
2016-08-30T06:02:53.605Z,90
2016-08-30T06:03:28.269Z,90
2016-08-30T06:04:02.758Z,90
2016-08-30T06:04:37.140Z,90
2016-08-30T06:05:13.444Z,90
2016-08-30T06:05:48.051Z,90
2016-08-30T06:06:23.108Z,90
2016-08-30T06:06:57.433Z,90
2016-08-30T06:07:32.011Z,95
2016-08-30T06:08:11.765Z,95
2016-08-30T06:08:58.360Z,95
2016-08-30T06:09:34.110Z,95
2016-08-30T06:10:35.283Z,95
2016-08-30T06:11:28.864Z,95
2016-08-30T06:12:03.207Z,95
2016-08-30T06:12:37.509Z,95
2016-08-30T06:13:11.883Z,95
2016-08-30T06:13:47.533Z,95
2016-08-30T06:14:22.944Z,95
2016-08-30T06:14:57.639Z,100
2016-08-30T06:15:32.783Z,100
2016-08-30T06:16:09.967Z,100
2016-08-30T06:16:44.319Z,100
2016-08-30T06:17:18.623Z,100
2016-08-30T06:17:52.902Z,100
2016-08-30T06:18:28.572Z,100
2016-08-30T06:19:03.955Z,100
2016-08-30T06:19:38.267Z,100
2016-08-30T06:20:25.193Z,100
2016-08-30T06:20:59.502Z,100
2016-08-30T06:21:33.788Z,100
2016-08-30T06:22:08.609Z,100
2016-08-30T06:22:42.927Z,100
2016-08-30T06:23:17.928Z,100
2016-08-30T06:23:54.219Z,100
2016-08-30T06:24:28.732Z,100
2016-08-30T06:25:03.022Z,105
2016-08-30T06:25:37.310Z,105
2016-08-30T06:26:11.638Z,105
2016-08-30T06:26:45.954Z,105
2016-08-30T06:27:20.455Z,105
2016-08-30T06:27:54.788Z,105
2016-08-30T06:28:29.081Z,105
2016-08-30T06:29:03.401Z,105
2016-08-30T06:29:37.670Z,105
2016-08-30T06:30:12.711Z,105
2016-08-30T06:30:47.109Z,105
2016-08-30T06:31:21.404Z,105
2016-08-30T06:31:55.705Z,105
2016-08-30T06:32:30.710Z,105
2016-08-30T06:33:05.006Z,105
2016-08-30T06:33:39.601Z,105
2016-08-30T06:34:13.893Z,105
2016-08-30T06:34:48.981Z,105
2016-08-30T06:35:24.475Z,105
2016-08-30T06:35:58.773Z,105
2016-08-30T06:36:33.059Z,105
2016-08-30T06:37:08.459Z,105
2016-08-30T06:37:42.760Z,105
2016-08-30T06:38:17.045Z,110
2016-08-30T06:38:51.362Z,110
2016-08-30T06:39:26.566Z,110
2016-08-30T06:40:00.841Z,110
2016-08-30T06:40:35.131Z,105
2016-08-30T06:41:09.448Z,110
2016-08-30T06:41:43.730Z,110
2016-08-30T06:42:18.035Z,110
2016-08-30T06:42:52.340Z,110
2016-08-30T06:43:26.647Z,110
2016-08-30T06:44:00.979Z,110
2016-08-30T06:44:35.288Z,110
2016-08-30T06:45:09.590Z,110
2016-08-30T06:45:43.883Z,110
2016-08-30T06:46:18.191Z,110
2016-08-30T06:46:52.464Z,110
2016-08-30T06:47:26.771Z,110
2016-08-30T06:48:07.597Z,105
2016-08-30T06:48:44.578Z,105
2016-08-30T06:49:20.693Z,105
2016-08-30T06:49:58.728Z,110
2016-08-30T06:50:34.849Z,110
2016-08-30T06:51:17.111Z,110
2016-08-30T06:51:56.303Z,110
2016-08-30T06:52:34.666Z,110
2016-08-30T06:53:13.113Z,110
2016-08-30T06:53:54.094Z,110
2016-08-30T06:54:34.103Z,110
2016-08-30T06:55:16.605Z,110
2016-08-30T06:55:59.089Z,115
2016-08-30T06:56:35.338Z,115
2016-08-30T06:57:13.098Z,115
2016-08-30T06:57:55.094Z,115
2016-08-30T06:58:33.544Z,115
2016-08-30T06:59:12.858Z,115
2016-08-30T06:59:52.586Z,115
2016-08-30T07:00:29.232Z,115
2016-08-30T07:01:05.543Z,115
2016-08-30T07:01:45.103Z,115
2016-08-30T07:02:19.610Z,110
2016-08-30T07:02:56.590Z,110
2016-08-30T07:03:32.298Z,110
2016-08-30T07:04:07.498Z,110
2016-08-30T07:04:42.781Z,110
2016-08-30T07:05:26.138Z,110
2016-08-30T07:06:00.537Z,110
2016-08-30T07:06:35.393Z,110
2016-08-30T07:07:09.677Z,110
2016-08-30T07:07:44.096Z,110
2016-08-30T07:08:18.555Z,115
2016-08-30T07:08:52.880Z,115
2016-08-30T07:09:27.182Z,115
2016-08-30T07:10:02.102Z,115
2016-08-30T07:10:36.391Z,115
2016-08-30T07:11:11.591Z,110
2016-08-30T07:11:45.900Z,110
2016-08-30T07:12:20.827Z,110
2016-08-30T07:12:55.219Z,110
2016-08-30T07:13:31.736Z,110
2016-08-30T07:14:07.055Z,110
2016-08-30T07:14:41.443Z,110
2016-08-30T07:15:16.648Z,110
2016-08-30T07:15:50.915Z,110
2016-08-30T07:16:26.504Z,110
2016-08-30T07:17:00.784Z,110
2016-08-30T07:17:37.112Z,110
2016-08-30T07:18:13.510Z,110
2016-08-30T07:18:48.858Z,110
2016-08-30T07:19:23.317Z,110
2016-08-30T07:19:58.572Z,110
2016-08-30T07:20:33.840Z,110
2016-08-30T07:21:09.684Z,110
2016-08-30T07:21:43.964Z,110
2016-08-30T07:22:18.361Z,110
2016-08-30T07:22:52.928Z,110
2016-08-30T07:23:27.279Z,110
2016-08-30T07:24:01.730Z,110
2016-08-30T07:24:36.101Z,110
2016-08-30T07:25:14.459Z,110
2016-08-30T07:25:48.759Z,110
2016-08-30T07:26:24.516Z,110
2016-08-30T07:27:02.402Z,110
2016-08-30T07:27:36.819Z,110
2016-08-30T07:28:12.085Z,110
2016-08-30T07:28:46.454Z,110
2016-08-30T07:29:21.602Z,110
2016-08-30T07:29:56.640Z,110
2016-08-30T07:30:30.931Z,110
2016-08-30T07:31:05.242Z,110
2016-08-30T07:31:39.555Z,110
2016-08-30T07:32:14.819Z,110
2016-08-30T07:32:50.149Z,110
2016-08-30T07:33:24.419Z,110
2016-08-30T07:33:58.690Z,105
2016-08-30T07:34:33.007Z,105
2016-08-30T07:35:11.213Z,105
2016-08-30T07:35:54.644Z,105
2016-08-30T07:36:36.694Z,105
2016-08-30T07:37:17.196Z,105
2016-08-30T07:38:01.220Z,105
2016-08-30T07:38:35.526Z,105
2016-08-30T07:39:09.832Z,105
2016-08-30T07:39:44.131Z,105
2016-08-30T07:40:18.442Z,105
2016-08-30T07:40:52.736Z,105
2016-08-30T07:41:27.033Z,105
2016-08-30T07:42:01.321Z,105
2016-08-30T07:42:36.619Z,105
2016-08-30T07:43:10.906Z,105
2016-08-30T07:43:45.193Z,105
2016-08-30T07:44:19.484Z,105
2016-08-30T07:44:53.928Z,105
2016-08-30T07:45:28.233Z,105
2016-08-30T07:46:02.524Z,105
2016-08-30T07:46:37.123Z,105
2016-08-30T07:47:11.415Z,105
2016-08-30T07:47:45.710Z,105
2016-08-30T07:48:19.999Z,105
2016-08-30T07:48:54.334Z,105
2016-08-30T07:49:28.611Z,105
2016-08-30T07:50:02.911Z,105
2016-08-30T07:50:37.208Z,105
2016-08-30T07:51:11.520Z,100
2016-08-30T07:51:45.824Z,100
2016-08-30T07:52:20.109Z,100
2016-08-30T07:52:54.385Z,100
2016-08-30T07:53:28.690Z,100
2016-08-30T07:54:02.965Z,100
2016-08-30T07:54:37.265Z,100
2016-08-30T07:55:11.587Z,100
2016-08-30T07:55:47.115Z,100
2016-08-30T07:56:22.988Z,100
2016-08-30T07:56:58.063Z,100
2016-08-30T07:57:33.123Z,100
2016-08-30T07:58:07.395Z,100
2016-08-30T07:58:41.687Z,100
2016-08-30T07:59:15.984Z,100
2016-08-30T07:59:50.449Z,100
2016-08-30T08:00:24.752Z,100
2016-08-30T08:00:59.538Z,100
2016-08-30T08:01:35.044Z,100
2016-08-30T08:02:09.834Z,100
2016-08-30T08:02:44.775Z,100
2016-08-30T08:03:19.080Z,100
2016-08-30T08:03:54.356Z,100
2016-08-30T08:04:29.960Z,95
2016-08-30T08:05:04.473Z,95
2016-08-30T08:05:38.755Z,95
2016-08-30T08:06:13.071Z,95
2016-08-30T08:06:47.369Z,95
2016-08-30T08:07:21.675Z,95
2016-08-30T08:07:55.971Z,95
2016-08-30T08:08:30.347Z,95
2016-08-30T08:09:04.706Z,95
2016-08-30T08:09:39.089Z,95
2016-08-30T08:10:15.496Z,95
2016-08-30T08:10:49.790Z,95
2016-08-30T08:11:24.100Z,95
2016-08-30T08:11:58.384Z,95
2016-08-30T08:12:32.685Z,95
2016-08-30T08:13:06.958Z,95
2016-08-30T08:13:41.272Z,95
2016-08-30T08:14:15.551Z,95
2016-08-30T08:14:49.839Z,95
2016-08-30T08:15:24.133Z,95
2016-08-30T08:15:59.462Z,90
2016-08-30T08:16:33.739Z,90
2016-08-30T08:17:08.032Z,90
2016-08-30T08:17:42.309Z,90
2016-08-30T08:18:16.606Z,90
2016-08-30T08:18:50.883Z,90
2016-08-30T08:19:25.169Z,90
2016-08-30T08:19:59.452Z,90
2016-08-30T08:20:33.745Z,90
2016-08-30T08:21:08.022Z,90
2016-08-30T08:21:43.336Z,90
2016-08-30T08:22:17.636Z,90
2016-08-30T08:22:51.939Z,90
2016-08-30T08:23:26.209Z,90
2016-08-30T08:24:00.536Z,90
2016-08-30T08:24:34.810Z,90
2016-08-30T08:25:09.096Z,90
2016-08-30T08:25:43.384Z,90
2016-08-30T08:26:17.698Z,90
2016-08-30T08:26:52.030Z,90
2016-08-30T08:27:26.983Z,90
2016-08-30T08:28:01.294Z,90
2016-08-30T08:28:35.617Z,90
2016-08-30T08:29:09.919Z,85
2016-08-30T08:29:44.203Z,85
2016-08-30T08:30:18.474Z,85
2016-08-30T08:30:52.748Z,85
2016-08-30T08:31:27.037Z,85
2016-08-30T08:32:01.372Z,85
2016-08-30T08:32:35.679Z,85
2016-08-30T08:33:09.991Z,85
2016-08-30T08:33:44.276Z,85
2016-08-30T08:34:18.572Z,85
2016-08-30T08:34:52.869Z,85
2016-08-30T08:35:27.184Z,85
2016-08-30T08:36:01.556Z,85
2016-08-30T08:36:35.880Z,85
2016-08-30T08:37:10.164Z,85
2016-08-30T08:37:44.472Z,85
2016-08-30T08:38:19.623Z,85
2016-08-30T08:38:53.935Z,85
2016-08-30T08:39:28.998Z,85
2016-08-30T08:40:03.282Z,85
2016-08-30T08:40:37.574Z,85
2016-08-30T08:42:09.364Z,85
2016-08-30T08:42:46.087Z,80
2016-08-30T08:43:20.400Z,80
2016-08-30T08:43:54.729Z,80
2016-08-30T08:44:29.908Z,80
2016-08-30T08:45:15.639Z,80
2016-08-30T08:45:50.058Z,80
2016-08-30T08:46:24.404Z,80
2016-08-30T08:47:00.222Z,80
2016-08-30T08:47:34.562Z,80
2016-08-30T08:48:09.979Z,80
2016-08-30T08:48:44.361Z,80
2016-08-30T08:49:19.279Z,80
2016-08-30T08:49:53.636Z,80
2016-08-30T08:50:27.923Z,80
2016-08-30T08:51:03.210Z,80
2016-08-30T08:51:39.773Z,80
2016-08-30T08:52:16.162Z,80
2016-08-30T08:52:52.272Z,80
2016-08-30T08:53:29.239Z,80
2016-08-30T08:54:05.671Z,80
2016-08-30T08:54:46.507Z,80
2016-08-30T08:55:27.162Z,80
2016-08-30T08:56:05.270Z,80
2016-08-30T08:56:43.103Z,80
2016-08-30T08:57:23.152Z,75
2016-08-30T08:58:01.251Z,75
2016-08-30T08:58:40.167Z,75
2016-08-30T08:59:17.804Z,75
2016-08-30T09:00:01.175Z,75
2016-08-30T09:00:41.696Z,75
2016-08-30T09:01:17.894Z,75
2016-08-30T09:01:54.387Z,75
2016-08-30T09:02:30.657Z,75
2016-08-30T09:03:08.803Z,75
2016-08-30T09:03:44.871Z,75
2016-08-30T09:04:21.654Z,75
2016-08-30T09:04:57.780Z,75
2016-08-30T09:05:34.178Z,75
2016-08-30T09:06:12.159Z,75
2016-08-30T09:06:46.538Z,75
2016-08-30T09:07:21.134Z,75
2016-08-30T09:07:55.426Z,75
2016-08-30T09:08:29.735Z,75
2016-08-30T09:09:04.867Z,75
2016-08-30T09:09:41.817Z,75
2016-08-30T09:10:18.329Z,75
2016-08-30T09:10:55.026Z,75
2016-08-30T09:11:29.349Z,75
2016-08-30T09:12:10.826Z,75
2016-08-30T09:12:45.137Z,75
2016-08-30T09:13:19.479Z,75
2016-08-30T09:13:53.833Z,75
2016-08-30T09:14:29.383Z,75
2016-08-30T09:15:03.681Z,75
2016-08-30T09:15:37.987Z,75
2016-08-30T09:16:13.060Z,75
2016-08-30T09:16:48.227Z,75
2016-08-30T09:17:22.515Z,75
2016-08-30T09:17:56.871Z,75
2016-08-30T09:18:31.171Z,75
2016-08-30T09:19:05.470Z,75
2016-08-30T09:19:39.776Z,75
2016-08-30T09:20:16.682Z,75
2016-08-30T09:20:51.276Z,75
2016-08-30T09:21:25.672Z,75
2016-08-30T09:22:00.064Z,75
2016-08-30T09:22:34.725Z,75
2016-08-30T09:23:10.693Z,75
2016-08-30T09:23:45.075Z,75
2016-08-30T09:24:19.361Z,75
2016-08-30T09:24:53.638Z,75
2016-08-30T09:25:27.908Z,75
2016-08-30T09:26:02.195Z,75
2016-08-30T09:26:36.494Z,75
2016-08-30T09:27:10.793Z,75
2016-08-30T09:27:45.066Z,75
2016-08-30T09:28:19.375Z,70
2016-08-30T09:28:53.680Z,70
2016-08-30T09:29:27.968Z,70
2016-08-30T09:30:02.419Z,70
2016-08-30T09:30:36.715Z,70
2016-08-30T09:31:11.029Z,70
2016-08-30T09:31:45.338Z,70
2016-08-30T09:32:19.631Z,70
2016-08-30T09:32:53.941Z,70
2016-08-30T09:33:28.238Z,70
2016-08-30T09:34:02.521Z,70
2016-08-30T09:34:36.829Z,70
2016-08-30T09:35:11.144Z,70
2016-08-30T09:35:47.057Z,70
2016-08-30T09:36:23.811Z,70
2016-08-30T09:36:58.302Z,70
2016-08-30T09:37:33.760Z,70
2016-08-30T09:38:08.788Z,70
2016-08-30T09:38:43.838Z,70
2016-08-30T09:39:20.177Z,70
2016-08-30T09:39:55.192Z,70
2016-08-30T09:40:29.715Z,70
2016-08-30T09:41:04.028Z,70
2016-08-30T09:41:38.341Z,70
2016-08-30T09:42:12.652Z,70
2016-08-30T09:42:46.931Z,70
2016-08-30T09:43:21.232Z,70
2016-08-30T09:43:55.523Z,70
2016-08-30T09:44:29.794Z,70
2016-08-30T09:45:05.192Z,70
2016-08-30T09:45:39.487Z,70
2016-08-30T09:46:13.792Z,70
2016-08-30T09:46:48.263Z,70
2016-08-30T09:47:22.594Z,70
2016-08-30T09:47:56.898Z,70
2016-08-30T09:48:31.189Z,70
2016-08-30T09:49:05.473Z,75
2016-08-30T09:49:39.765Z,75
2016-08-30T09:50:14.166Z,75
2016-08-30T09:50:48.460Z,75
2016-08-30T09:51:22.769Z,75
2016-08-30T09:51:57.085Z,75
2016-08-30T09:52:31.381Z,75
2016-08-30T09:53:05.659Z,75
2016-08-30T09:53:39.945Z,75
2016-08-30T09:54:14.247Z,75
2016-08-30T09:54:48.535Z,75
2016-08-30T09:55:23.013Z,75
2016-08-30T09:55:57.292Z,75
2016-08-30T09:56:31.577Z,75
2016-08-30T09:57:05.867Z,75
2016-08-30T09:57:40.169Z,75
2016-08-30T09:58:14.479Z,75
2016-08-30T09:58:48.774Z,75
2016-08-30T09:59:23.080Z,75
2016-08-30T09:59:57.434Z,75
2016-08-30T10:00:31.785Z,75
2016-08-30T10:01:06.647Z,75
2016-08-30T10:01:40.944Z,75
2016-08-30T10:02:15.235Z,75
2016-08-30T10:02:49.525Z,75
2016-08-30T10:03:23.829Z,80
2016-08-30T10:03:58.118Z,80
2016-08-30T10:04:32.429Z,80
2016-08-30T10:05:06.724Z,80
2016-08-30T10:05:41.020Z,80
2016-08-30T10:06:16.801Z,80
2016-08-30T10:06:51.122Z,80
2016-08-30T10:07:25.441Z,80
2016-08-30T10:07:59.730Z,80
2016-08-30T10:08:34.038Z,80
2016-08-30T10:09:08.356Z,80
2016-08-30T10:09:42.630Z,80
2016-08-30T10:10:17.145Z,80
2016-08-30T10:10:51.449Z,80
2016-08-30T10:11:27.697Z,85
2016-08-30T10:12:01.985Z,85
2016-08-30T10:12:38.174Z,85
2016-08-30T10:13:12.638Z,85
2016-08-30T10:13:47.909Z,85
2016-08-30T10:14:22.197Z,85
2016-08-30T10:14:56.512Z,85
2016-08-30T10:15:30.821Z,85
2016-08-30T10:16:05.128Z,85
2016-08-30T10:16:39.427Z,85
2016-08-30T10:17:13.741Z,85
2016-08-30T10:17:48.122Z,85
2016-08-30T10:18:22.427Z,90
2016-08-30T10:18:56.761Z,90
2016-08-30T10:19:31.080Z,90
2016-08-30T10:20:05.401Z,90
2016-08-30T10:20:39.673Z,90
2016-08-30T10:21:13.963Z,90
2016-08-30T10:21:48.236Z,90
2016-08-30T10:22:22.569Z,90
2016-08-30T10:22:56.902Z,90
2016-08-30T10:23:31.192Z,90
2016-08-30T10:24:05.507Z,90
2016-08-30T10:24:39.794Z,90
2016-08-30T10:25:14.071Z,95
2016-08-30T10:25:48.372Z,95
2016-08-30T10:26:22.661Z,95
2016-08-30T10:26:56.955Z,95
2016-08-30T10:27:31.247Z,95
2016-08-30T10:28:05.552Z,95
2016-08-30T10:28:39.861Z,95
2016-08-30T10:29:14.151Z,95
2016-08-30T10:29:48.445Z,95
2016-08-30T10:30:42.868Z,95
2016-08-30T10:31:17.151Z,95
2016-08-30T10:31:51.450Z,95
2016-08-30T10:32:25.726Z,95
2016-08-30T10:33:08.133Z,100
2016-08-30T10:33:42.446Z,100
2016-08-30T10:34:17.723Z,100
2016-08-30T10:34:55.235Z,100
2016-08-30T10:35:29.593Z,100
2016-08-30T10:36:03.869Z,100
2016-08-30T10:36:38.807Z,100
2016-08-30T10:37:16.719Z,105
2016-08-30T10:37:53.692Z,105
2016-08-30T10:38:28.066Z,105
2016-08-30T10:39:02.433Z,105
2016-08-30T10:39:37.159Z,105
2016-08-30T10:40:15.730Z,105
2016-08-30T10:40:51.710Z,105
2016-08-30T10:41:30.744Z,105
2016-08-30T10:42:15.742Z,110
2016-08-30T10:42:55.732Z,110
2016-08-30T10:43:34.721Z,110
2016-08-30T10:44:13.810Z,110
2016-08-30T10:44:48.729Z,110
2016-08-30T10:45:25.213Z,110
2016-08-30T10:46:04.242Z,110
2016-08-30T10:46:44.780Z,110
2016-08-30T10:47:26.733Z,110
2016-08-30T10:48:03.592Z,115
2016-08-30T10:48:39.536Z,115
2016-08-30T10:49:16.649Z,115
2016-08-30T10:49:51.733Z,115
2016-08-30T10:50:26.555Z,115
2016-08-30T10:51:04.345Z,115
2016-08-30T10:51:42.599Z,115
2016-08-30T10:52:23.380Z,115
2016-08-30T10:52:59.390Z,115
2016-08-30T10:53:42.229Z,115
2016-08-30T10:54:20.615Z,120
2016-08-30T10:55:01.754Z,120
2016-08-30T10:55:38.741Z,120
2016-08-30T10:56:17.046Z,120
2016-08-30T10:56:56.826Z,120
2016-08-30T10:57:36.235Z,120
2016-08-30T10:58:10.808Z,120
2016-08-30T10:58:50.697Z,125
2016-08-30T10:59:30.954Z,125
2016-08-30T11:00:11.894Z,125
2016-08-30T11:00:49.249Z,125
2016-08-30T11:01:27.756Z,125
2016-08-30T11:02:07.242Z,130
2016-08-30T11:02:46.246Z,130
2016-08-30T11:03:23.318Z,130
2016-08-30T11:04:00.854Z,130
2016-08-30T11:04:38.031Z,130
2016-08-30T11:05:18.742Z,135
2016-08-30T11:05:53.990Z,135
2016-08-30T11:06:32.749Z,135
2016-08-30T11:07:09.620Z,135
2016-08-30T11:07:49.243Z,135
2016-08-30T11:08:27.150Z,135
2016-08-30T11:09:02.154Z,135
2016-08-30T11:09:37.301Z,140
2016-08-30T11:10:11.632Z,140
2016-08-30T11:10:45.928Z,140
2016-08-30T11:11:20.207Z,140
2016-08-30T11:11:54.509Z,140
2016-08-30T11:12:28.805Z,140
2016-08-30T11:13:03.115Z,145
2016-08-30T11:13:37.414Z,145
2016-08-30T11:14:12.692Z,145
2016-08-30T11:14:46.976Z,145
2016-08-30T11:15:21.308Z,145
2016-08-30T11:15:55.607Z,145
2016-08-30T11:16:29.930Z,150
2016-08-30T11:17:04.219Z,150
2016-08-30T11:17:38.511Z,150
2016-08-30T11:18:12.819Z,150
2016-08-30T11:18:47.130Z,150
2016-08-30T11:19:21.434Z,155
2016-08-30T11:19:55.744Z,155
2016-08-30T11:20:30.060Z,155
2016-08-30T11:21:04.348Z,155
2016-08-30T11:21:38.632Z,155
2016-08-30T11:22:12.926Z,160
2016-08-30T11:22:47.223Z,160
2016-08-30T11:23:21.530Z,160
2016-08-30T11:23:55.828Z,160
2016-08-30T11:24:30.145Z,165
2016-08-30T11:25:04.432Z,165
2016-08-30T11:25:38.749Z,165
2016-08-30T11:26:13.128Z,165
2016-08-30T11:26:47.467Z,170
2016-08-30T11:27:21.766Z,170
2016-08-30T11:27:56.055Z,170
2016-08-30T11:28:30.345Z,170
2016-08-30T11:29:04.637Z,175
2016-08-30T11:29:38.968Z,175
2016-08-30T11:30:13.286Z,175
2016-08-30T11:30:47.606Z,180
2016-08-30T11:31:21.892Z,180
2016-08-30T11:31:56.187Z,180
2016-08-30T11:32:30.485Z,185
2016-08-30T11:33:04.767Z,185
2016-08-30T11:33:39.054Z,185
2016-08-30T11:34:13.368Z,190
2016-08-30T11:34:47.663Z,190
2016-08-30T11:35:21.979Z,195
2016-08-30T11:35:56.265Z,195
2016-08-30T11:36:30.563Z,195
2016-08-30T11:37:04.865Z,200
2016-08-30T11:37:39.142Z,200
2016-08-30T11:38:13.421Z,200
2016-08-30T11:38:47.727Z,205
2016-08-30T11:39:22.001Z,205
2016-08-30T11:39:56.303Z,210
2016-08-30T11:40:30.587Z,210
2016-08-30T11:41:04.882Z,210
2016-08-30T11:41:40.063Z,210
2016-08-30T11:42:14.358Z,210
2016-08-30T11:42:48.641Z,215
2016-08-30T11:43:22.918Z,215
2016-08-30T11:43:57.216Z,220
2016-08-30T11:44:31.493Z,220
2016-08-30T11:45:05.796Z,225
2016-08-30T11:45:40.094Z,225
2016-08-30T11:46:14.412Z,225
2016-08-30T11:46:48.709Z,230
2016-08-30T11:47:23.005Z,235
2016-08-30T11:47:57.308Z,235
2016-08-30T11:48:31.612Z,240
2016-08-30T11:49:05.909Z,245
2016-08-30T11:49:40.226Z,245
2016-08-30T11:50:14.518Z,250
2016-08-30T11:50:48.799Z,255
2016-08-30T11:51:23.076Z,255
2016-08-30T11:51:58.297Z,260
2016-08-30T11:52:32.595Z,260
2016-08-30T11:53:06.888Z,265
2016-08-30T11:53:41.178Z,265
2016-08-30T11:54:15.477Z,270
2016-08-30T11:54:49.794Z,275
2016-08-30T11:55:24.679Z,280
2016-08-30T11:55:58.973Z,285
2016-08-30T11:56:33.254Z,290
2016-08-30T11:57:07.547Z,290
2016-08-30T11:57:41.861Z,300
2016-08-30T11:58:16.172Z,300
2016-08-30T11:58:50.503Z,305
2016-08-30T11:59:24.800Z,310
2016-08-30T11:59:59.098Z,315
2016-08-30T12:00:33.418Z,320
2016-08-30T12:01:07.716Z,325
2016-08-30T12:01:42.068Z,330
2016-08-30T12:02:16.365Z,335
2016-08-30T12:02:50.660Z,340
2016-08-30T12:03:24.949Z,345
2016-08-30T12:03:59.248Z,350
2016-08-30T12:04:33.552Z,355
2016-08-30T12:05:07.923Z,360
2016-08-30T12:05:42.241Z,365
2016-08-30T12:06:16.537Z,375
2016-08-30T12:06:50.839Z,380
2016-08-30T12:07:25.141Z,385
2016-08-30T12:07:59.425Z,385
2016-08-30T12:08:33.737Z,390
2016-08-30T12:09:08.074Z,400
2016-08-30T12:09:42.356Z,400
2016-08-30T12:10:17.186Z,410
2016-08-30T12:10:51.474Z,415
2016-08-30T12:11:25.805Z,420
2016-08-30T12:12:01.111Z,425
2016-08-30T12:12:35.410Z,435
2016-08-30T12:13:09.694Z,440
2016-08-30T12:13:44.728Z,445
2016-08-30T12:14:19.027Z,445
2016-08-30T12:14:53.326Z,450
2016-08-30T12:15:28.221Z,455
2016-08-30T12:16:02.614Z,460
2016-08-30T12:16:37.015Z,470
2016-08-30T12:17:11.314Z,475
2016-08-30T12:17:45.748Z,485
2016-08-30T12:18:20.069Z,495
2016-08-30T12:18:54.385Z,495
2016-08-30T12:19:28.704Z,500
2016-08-30T12:20:03.007Z,510
2016-08-30T12:20:37.325Z,515
2016-08-30T12:21:11.639Z,525
2016-08-30T12:21:45.971Z,535
2016-08-30T12:22:20.269Z,540
2016-08-30T12:22:54.578Z,545
2016-08-30T12:23:28.887Z,550
2016-08-30T12:24:03.184Z,545
2016-08-30T12:24:37.489Z,555
2016-08-30T12:25:11.832Z,560
2016-08-30T12:25:46.116Z,570
2016-08-30T12:26:20.411Z,585
2016-08-30T12:26:54.719Z,590
2016-08-30T12:27:28.999Z,595
2016-08-30T12:28:03.318Z,605
2016-08-30T12:28:37.621Z,615
2016-08-30T12:29:11.930Z,620
2016-08-30T12:29:46.237Z,630
2016-08-30T12:30:20.716Z,640
2016-08-30T12:30:55.018Z,645
2016-08-30T12:31:29.317Z,645
2016-08-30T12:32:03.866Z,650
2016-08-30T12:32:38.170Z,655
2016-08-30T12:33:12.452Z,665
2016-08-30T12:33:46.745Z,670
2016-08-30T12:34:21.763Z,680
2016-08-30T12:34:56.051Z,690
2016-08-30T12:35:30.348Z,695
2016-08-30T12:36:04.632Z,700
2016-08-30T12:36:38.949Z,705
2016-08-30T12:37:13.240Z,705
2016-08-30T12:37:47.528Z,710
2016-08-30T12:38:21.825Z,715
2016-08-30T12:38:56.112Z,715
2016-08-30T12:39:30.422Z,720
2016-08-30T12:40:06.590Z,725
2016-08-30T12:40:40.872Z,725
2016-08-30T12:41:15.163Z,730
2016-08-30T12:41:49.468Z,735
2016-08-30T12:42:23.764Z,735
2016-08-30T12:42:58.062Z,740
2016-08-30T12:43:32.351Z,745
2016-08-30T12:44:06.655Z,750
2016-08-30T12:44:40.930Z,750
2016-08-30T12:45:15.752Z,755
2016-08-30T12:45:50.065Z,760
2016-08-30T12:46:24.352Z,760
2016-08-30T12:46:58.650Z,765
2016-08-30T12:47:33.136Z,770
2016-08-30T12:48:07.482Z,775
2016-08-30T12:48:41.775Z,780
2016-08-30T12:49:16.059Z,780
2016-08-30T12:49:50.358Z,785
2016-08-30T12:50:24.664Z,785
2016-08-30T12:50:58.986Z,785
2016-08-30T12:51:33.270Z,790
2016-08-30T12:52:07.552Z,785
2016-08-30T12:52:41.842Z,790
2016-08-30T12:53:16.143Z,790
2016-08-30T12:53:50.439Z,790
2016-08-30T12:54:24.742Z,795
2016-08-30T12:54:59.042Z,790
2016-08-30T12:55:34.713Z,790
2016-08-30T12:56:09.036Z,800
2016-08-30T12:56:43.317Z,795
2016-08-30T12:57:17.619Z,795
2016-08-30T12:57:51.906Z,795
2016-08-30T12:58:26.205Z,795
2016-08-30T12:59:01.915Z,795
2016-08-30T12:59:37.185Z,795
2016-08-30T13:00:11.483Z,795
2016-08-30T13:00:45.781Z,785
2016-08-30T13:01:20.074Z,795
2016-08-30T13:01:54.360Z,795
2016-08-30T13:02:28.667Z,795
2016-08-30T13:03:02.964Z,800
2016-08-30T13:03:37.272Z,800
2016-08-30T13:04:11.568Z,805
2016-08-30T13:04:45.871Z,805
2016-08-30T13:05:20.186Z,800
2016-08-30T13:05:54.525Z,805
2016-08-30T13:06:28.856Z,800
2016-08-30T13:07:05.731Z,800
2016-08-30T13:07:40.807Z,800
2016-08-30T13:08:15.142Z,800
2016-08-30T13:08:51.850Z,800
2016-08-30T13:09:26.216Z,795
2016-08-30T13:10:00.677Z,795
2016-08-30T13:10:35.118Z,795
2016-08-30T13:11:09.403Z,800
2016-08-30T13:11:43.698Z,790
2016-08-30T13:12:18.846Z,795
2016-08-30T13:12:53.203Z,800
2016-08-30T13:13:27.502Z,770
2016-08-30T13:14:02.950Z,790
2016-08-30T13:14:37.262Z,790
2016-08-30T13:15:11.780Z,790
2016-08-30T13:15:46.093Z,795
2016-08-30T13:16:20.416Z,790
2016-08-30T13:16:56.567Z,785
2016-08-30T13:17:30.851Z,785
2016-08-30T13:18:12.400Z,785
2016-08-30T13:18:46.905Z,785
2016-08-30T13:19:21.200Z,785
2016-08-30T13:19:55.527Z,780
2016-08-30T13:20:29.828Z,780
2016-08-30T13:21:04.191Z,775
2016-08-30T13:21:38.503Z,775
2016-08-30T13:22:12.793Z,775
2016-08-30T13:22:47.132Z,770
2016-08-30T13:23:21.429Z,775
2016-08-30T13:23:55.770Z,775
2016-08-30T13:24:31.063Z,785
2016-08-30T13:25:05.938Z,805
2016-08-30T13:25:40.226Z,880
2016-08-30T13:26:14.542Z,1010
2016-08-30T13:26:48.834Z,1215
2016-08-30T13:27:24.143Z,1435
2016-08-30T13:27:58.459Z,1650
2016-08-30T13:28:32.754Z,1830
2016-08-30T13:29:07.073Z,2000
2016-08-30T13:29:41.370Z,2170
2016-08-30T13:30:16.060Z,2295
2016-08-30T13:30:50.358Z,2300
2016-08-30T13:31:24.654Z,2055
2016-08-30T13:31:58.948Z,1600
2016-08-30T13:32:33.240Z,1150
2016-08-30T13:33:07.549Z,905
2016-08-30T13:33:41.864Z,1055
2016-08-30T13:34:16.168Z,1475
2016-08-30T13:34:50.453Z,1915
2016-08-30T13:35:24.756Z,2185
2016-08-30T13:35:59.045Z,1860
2016-08-30T13:36:33.350Z,1355
2016-08-30T13:37:07.642Z,955
2016-08-30T13:37:41.932Z,840
2016-08-30T13:38:16.223Z,975
2016-08-30T13:38:50.520Z,1360
2016-08-30T13:39:24.816Z,1805
2016-08-30T13:39:59.109Z,2105
2016-08-30T13:40:33.418Z,2175
2016-08-30T13:41:07.713Z,2205
2016-08-30T13:41:42.000Z,2250
2016-08-30T13:42:16.341Z,2160
2016-08-30T13:42:50.683Z,1785
2016-08-30T13:43:24.977Z,1310